Time;durP1;ratioP1;P1;durP2;ratioP2;P2;SDS_P1;SDS_P2;PMS_P1;PMS_P2;Temp;Humidity;BMP_temperature;BMP_pressure;BME280_temperature;BME280_humidity;BME280_pressure;Samples;Min_cycle;Max_cycle;Signal;HPM_P1;HPM_P2
2021/08/02 00:01:29;;;;;;;11.57;3.58;;;14.70;99.90;;;;;;5091547;28;20067;-83
2021/08/02 00:04:08;;;;;;;8.15;4.38;;;14.70;99.90;;;;;;5068648;28;20045;-83
2021/08/02 00:06:51;;;;;;;5.90;3.55;;;14.60;99.90;;;;;;5063028;28;20049;-83
2021/08/02 00:09:35;;;;;;;9.85;3.42;;;14.60;99.90;;;;;;5077201;28;20410;-83
2021/08/02 00:12:11;;;;;;;8.43;3.17;;;14.50;99.90;;;;;;5077090;28;20045;-84
2021/08/02 00:14:41;;;;;;;9.02;3.83;;;14.50;99.90;;;;;;5087579;28;20049;-83
2021/08/02 00:17:12;;;;;;;6.07;3.35;;;14.50;99.90;;;;;;5071457;28;20055;-83
2021/08/02 00:19:43;;;;;;;9.18;2.85;;;14.40;99.90;;;;;;5065735;28;20052;-82
2021/08/02 00:22:11;;;;;;;12.02;3.60;;;14.40;99.90;;;;;;5069519;28;20056;-83
2021/08/02 00:24:40;;;;;;;11.40;4.10;;;14.30;99.90;;;;;;5048051;28;20049;-83
2021/08/02 00:27:10;;;;;;;5.72;2.90;;;14.30;99.90;;;;;;5063812;28;20049;-84
2021/08/02 00:29:41;;;;;;;12.27;3.15;;;14.20;99.90;;;;;;5065346;28;20036;-84
2021/08/02 00:32:16;;;;;;;6.60;3.40;;;14.20;99.90;;;;;;5057700;28;20041;-83
2021/08/02 00:34:45;;;;;;;12.52;3.25;;;14.20;99.90;;;;;;5055966;28;20052;-82
2021/08/02 00:37:51;;;;;;;13.45;4.35;;;14.20;99.90;;;;;;5072133;28;20037;-84
2021/08/02 00:40:48;;;;;;;7.20;3.20;;;14.80;99.90;;;;;;5037570;28;20156;-84
2021/08/02 00:43:56;;;;;;;6.40;2.88;;;14.10;99.90;;;;;;5048407;28;20055;-84
2021/08/02 00:46:38;;;;;;;7.93;3.30;;;14.00;99.90;;;;;;5076225;28;20044;-82
2021/08/02 00:49:10;;;;;;;5.75;3.45;;;14.10;99.90;;;;;;5045263;28;20051;-84
2021/08/02 00:51:45;;;;;;;9.50;3.35;;;14.00;99.90;;;;;;5062516;28;20057;-84
2021/08/02 00:54:18;;;;;;;11.93;3.47;;;14.00;99.90;;;;;;5061723;28;20049;-83
2021/08/02 00:56:58;;;;;;;11.43;3.63;;;14.00;99.90;;;;;;5064033;28;20044;-83
2021/08/02 00:59:32;;;;;;;9.60;4.32;;;14.00;99.90;;;;;;5039407;28;20072;-83
2021/08/02 01:02:03;;;;;;;11.63;3.13;;;13.90;99.90;;;;;;5047902;28;20063;-83
2021/08/02 01:04:44;;;;;;;13.30;3.20;;;14.00;99.90;;;;;;5052121;28;20063;-83
2021/08/02 01:07:19;;;;;;;8.30;3.35;;;13.90;99.90;;;;;;5075586;28;20061;-83
2021/08/02 01:09:59;;;;;;;9.05;3.53;;;13.90;99.90;;;;;;5050111;28;20052;-83
2021/08/02 01:12:46;;;;;;;8.13;3.13;;;14.00;99.90;;;;;;5062743;28;20056;-84
2021/08/02 01:15:23;;;;;;;5.70;3.30;;;14.10;99.90;;;;;;5059495;28;20056;-83
2021/08/02 01:17:59;;;;;;;6.43;3.05;;;14.10;99.90;;;;;;5062768;28;20059;-83
2021/08/02 01:20:32;;;;;;;6.53;3.92;;;14.10;99.90;;;;;;5061241;28;20041;-83
2021/08/02 01:23:05;;;;;;;9.27;3.22;;;14.10;99.90;;;;;;5059646;28;20063;-83
2021/08/02 01:25:38;;;;;;;11.18;3.78;;;14.10;99.90;;;;;;5058347;28;20041;-84
2021/08/02 01:28:19;;;;;;;7.80;3.00;;;14.10;99.90;;;;;;5062722;28;20064;-83
2021/08/02 01:30:58;;;;;;;11.73;3.70;;;14.10;99.90;;;;;;5044565;28;20061;-82
2021/08/02 01:33:36;;;;;;;12.35;3.40;;;14.10;99.90;;;;;;5049580;28;20041;-83
2021/08/02 01:36:12;;;;;;;8.00;3.63;;;14.20;99.90;;;;;;5071621;28;20063;-83
2021/08/02 01:38:54;;;;;;;7.85;3.63;;;14.20;99.90;;;;;;5061188;28;20048;-82
2021/08/02 01:41:27;;;;;;;4.60;2.83;;;14.20;99.90;;;;;;5061173;28;20056;-84
2021/08/02 01:44:00;;;;;;;4.55;2.80;;;14.20;99.90;;;;;;5048741;28;20049;-82
2021/08/02 01:46:53;;;;;;;8.45;2.85;;;14.20;99.90;;;;;;5066546;28;20057;-83
2021/08/02 01:49:43;;;;;;;7.97;3.33;;;14.20;99.90;;;;;;5064018;28;20119;-84
2021/08/02 01:52:21;;;;;;;8.02;3.38;;;14.20;99.90;;;;;;5044461;28;20053;-83
2021/08/02 01:55:07;;;;;;;9.57;3.35;;;14.20;99.90;;;;;;5067324;28;20377;-84
2021/08/02 01:58:00;;;;;;;9.48;3.38;;;14.20;99.90;;;;;;5030243;28;20512;-83
2021/08/02 02:00:50;;;;;;;6.43;2.63;;;14.10;99.90;;;;;;5064229;28;20045;-83
2021/08/02 02:03:26;;;;;;;9.70;3.10;;;14.30;99.90;;;;;;5048362;28;20543;-84
2021/08/02 02:06:13;;;;;;;6.50;2.85;;;14.10;99.90;;;;;;5063177;28;20047;-83
2021/08/02 02:08:50;;;;;;;7.28;2.67;;;14.00;99.90;;;;;;5046490;28;20701;-84
2021/08/02 02:11:34;;;;;;;7.60;3.30;;;14.00;99.90;;;;;;5081460;28;20034;-83
2021/08/02 02:14:15;;;;;;;12.05;3.63;;;14.00;99.90;;;;;;5035055;28;20049;-84
2021/08/02 02:16:50;;;;;;;6.90;3.25;;;13.90;99.90;;;;;;5081787;28;20040;-82
2021/08/02 02:19:27;;;;;;;5.20;2.95;;;13.90;99.90;;;;;;5065532;28;20064;-83
2021/08/02 02:22:00;;;;;;;7.47;3.55;;;13.90;99.90;;;;;;5064182;28;20545;-82
2021/08/02 02:24:36;;;;;;;7.00;3.10;;;14.00;99.90;;;;;;5067660;28;20056;-82
2021/08/02 02:27:09;;;;;;;7.00;2.50;;;13.90;99.90;;;;;;5063219;28;20064;-83
2021/08/02 02:29:47;;;;;;;15.88;4.35;;;13.80;99.90;;;;;;5068072;28;20060;-83
2021/08/02 02:32:19;;;;;;;10.50;3.33;;;13.90;99.90;;;;;;5066516;28;20053;-83
2021/08/02 02:34:51;;;;;;;8.13;2.88;;;13.80;99.90;;;;;;5083521;28;20059;-82
2021/08/02 02:37:25;;;;;;;8.10;3.47;;;13.80;99.90;;;;;;5066656;28;20508;-83
2021/08/02 02:39:58;;;;;;;7.10;3.28;;;13.80;99.90;;;;;;5065808;28;20052;-83
2021/08/02 02:42:28;;;;;;;5.70;3.47;;;13.80;99.90;;;;;;5066005;28;20045;-83
2021/08/02 02:45:06;;;;;;;13.95;3.78;;;13.80;99.90;;;;;;5059143;28;21399;-84
2021/08/02 02:47:39;;;;;;;6.47;2.90;;;13.90;99.90;;;;;;5062872;28;20056;-83
2021/08/02 02:50:12;;;;;;;11.45;3.58;;;13.90;99.90;;;;;;5054714;28;20043;-83
2021/08/02 02:52:43;;;;;;;8.85;3.97;;;14.00;99.90;;;;;;5047401;28;20045;-83
2021/08/02 02:55:15;;;;;;;9.95;4.18;;;14.00;99.90;;;;;;5077304;28;20469;-83
2021/08/02 02:57:52;;;;;;;22.25;4.22;;;14.00;99.90;;;;;;5039128;28;20514;-83
2021/08/02 03:00:24;;;;;;;10.07;3.45;;;14.00;99.90;;;;;;5064769;28;20033;-83
2021/08/02 03:02:55;;;;;;;10.63;4.07;;;14.00;99.90;;;;;;5048851;28;20053;-84
2021/08/02 03:05:27;;;;;;;11.85;3.53;;;14.10;99.90;;;;;;5066484;28;20049;-83
2021/08/02 03:08:01;;;;;;;19.30;4.30;;;13.90;99.90;;;;;;5065055;28;20044;-82
2021/08/02 03:10:36;;;;;;;15.23;4.22;;;13.90;99.90;;;;;;5045990;28;20852;-83
2021/08/02 03:13:04;;;;;;;11.85;3.75;;;13.90;99.90;;;;;;5053341;28;20044;-83
2021/08/02 03:15:35;;;;;;;7.63;3.97;;;13.90;99.90;;;;;;5088393;28;20055;-84
2021/08/02 03:18:07;;;;;;;9.05;3.97;;;13.80;99.90;;;;;;5082667;28;20048;-83
2021/08/02 03:20:44;;;;;;;10.18;4.50;;;13.80;99.90;;;;;;5082333;28;20047;-83
2021/08/02 03:23:45;;;;;;;6.80;4.07;;;13.90;99.90;;;;;;5069557;28;20053;-83
2021/08/02 03:26:18;;;;;;;8.63;3.67;;;13.80;99.90;;;;;;5013475;28;20057;-83
2021/08/02 03:29:30;;;;;;;5.70;3.22;;;13.80;99.90;;;;;;5081992;28;20049;-84
2021/08/02 03:32:03;;;;;;;7.57;3.25;;;13.80;99.90;;;;;;5075338;28;20050;-83
2021/08/02 03:34:35;;;;;;;7.78;4.55;;;13.80;99.90;;;;;;5088028;28;20040;-83
2021/08/02 03:37:21;;;;;;;6.35;3.38;;;13.70;99.90;;;;;;5088771;28;20039;-84
2021/08/02 03:39:52;;;;;;;7.25;3.53;;;13.80;99.90;;;;;;5065821;28;20036;-83
2021/08/02 03:42:24;;;;;;;;;;;13.80;99.90;;;;;;5072412;28;20063;-84
2021/08/02 03:44:55;;;;;;;10.50;3.88;;;13.70;99.90;;;;;;5037295;28;19924;-83
2021/08/02 03:47:26;;;;;;;6.28;3.13;;;13.70;99.90;;;;;;5066176;28;20053;-84
2021/08/02 03:49:55;;;;;;;10.77;3.17;;;13.70;99.90;;;;;;5054175;28;20061;-83
2021/08/02 03:52:26;;;;;;;7.25;4.55;;;13.70;99.90;;;;;;5084948;28;20059;-83
2021/08/02 03:55:03;;;;;;;6.90;3.38;;;13.70;99.90;;;;;;5092906;28;20047;-82
2021/08/02 03:57:33;;;;;;;8.52;3.47;;;13.80;99.90;;;;;;5054917;28;20036;-84
2021/08/02 04:00:06;;;;;;;11.25;3.67;;;13.80;99.90;;;;;;5069387;28;20052;-84
2021/08/02 04:02:51;;;;;;;9.00;3.70;;;13.80;99.90;;;;;;5067637;28;20059;-84
2021/08/02 04:05:24;;;;;;;7.43;4.18;;;13.80;99.90;;;;;;5071078;28;20045;-82
2021/08/02 04:07:55;;;;;;;7.47;3.53;;;13.80;99.90;;;;;;5087784;28;20048;-84
2021/08/02 04:10:25;;;;;;;6.50;3.63;;;13.80;99.90;;;;;;5036315;28;20051;-83
2021/08/02 04:12:53;;;;;;;7.88;3.38;;;13.80;99.90;;;;;;5055084;28;20048;-84
2021/08/02 04:15:22;;;;;;;11.57;4.90;;;13.80;99.90;;;;;;5045329;28;20052;-83
2021/08/02 04:17:52;;;;;;;7.28;3.28;;;13.80;99.90;;;;;;5068223;28;20055;-83
2021/08/02 04:20:23;;;;;;;6.80;3.47;;;13.90;99.90;;;;;;5058507;28;20052;-83
2021/08/02 04:22:53;;;;;;;7.43;4.00;;;13.80;99.90;;;;;;5086796;28;20044;-83
2021/08/02 04:25:21;;;;;;;11.90;3.75;;;13.90;99.90;;;;;;5038305;28;20048;-84
2021/08/02 04:27:54;;;;;;;14.15;4.30;;;14.00;99.90;;;;;;5038268;28;20056;-84
2021/08/02 04:30:28;;;;;;;6.65;3.47;;;13.90;99.90;;;;;;5083802;28;20072;-83
2021/08/02 04:33:07;;;;;;;11.55;4.05;;;13.90;99.90;;;;;;5065739;28;20040;-83
2021/08/02 04:35:39;;;;;;;13.52;5.30;;;13.90;99.90;;;;;;5066534;28;20053;-83
2021/08/02 04:38:11;;;;;;;7.47;3.90;;;13.90;99.90;;;;;;5068201;28;20059;-83
2021/08/02 04:40:43;;;;;;;7.63;3.83;;;13.90;99.90;;;;;;5064308;28;20045;-83
2021/08/02 04:43:14;;;;;;;8.98;4.05;;;13.90;99.90;;;;;;5089900;28;20024;-84
2021/08/02 04:45:52;;;;;;;7.45;4.15;;;13.80;99.90;;;;;;5084236;28;20244;-84
2021/08/02 04:48:24;;;;;;;9.05;4.10;;;13.80;99.90;;;;;;5081455;28;20053;-83
2021/08/02 04:50:53;;;;;;;14.80;4.60;;;13.80;99.90;;;;;;5056519;28;20056;-83
2021/08/02 04:53:21;;;;;;;10.18;4.40;;;13.70;99.90;;;;;;5061990;28;20059;-84
2021/08/02 04:55:56;;;;;;;12.00;3.60;;;13.70;99.90;;;;;;5087084;28;20033;-82
2021/08/02 04:58:37;;;;;;;8.20;3.58;;;13.80;99.90;;;;;;5079689;28;20051;-83
2021/08/02 05:01:12;;;;;;;9.32;4.38;;;13.80;99.90;;;;;;5068203;28;20056;-82
2021/08/02 05:03:46;;;;;;;11.70;3.92;;;13.70;99.90;;;;;;5085028;28;20056;-83
2021/08/02 05:06:15;;;;;;;11.02;4.32;;;13.70;99.90;;;;;;5086721;28;20504;-82
2021/08/02 05:08:44;;;;;;;11.93;4.28;;;13.90;99.90;;;;;;5084766;28;20044;-83
2021/08/02 05:11:16;;;;;;;10.48;4.03;;;12.50;99.90;;;;;;5068286;28;20037;-84
2021/08/02 05:13:48;;;;;;;7.95;3.80;;;13.70;99.90;;;;;;5089981;28;20053;-83
2021/08/02 05:16:23;;;;;;;9.73;4.05;;;13.70;99.90;;;;;;5067598;28;20043;-83
2021/08/02 05:18:51;;;;;;;13.70;3.97;;;13.80;99.90;;;;;;5073287;28;20040;-83
2021/08/02 05:21:21;;;;;;;15.07;4.68;;;13.80;99.90;;;;;;5074020;28;20059;-83
2021/08/02 05:23:48;;;;;;;9.15;3.97;;;13.80;99.90;;;;;;5088713;28;20056;-83
2021/08/02 05:26:20;;;;;;;9.75;4.78;;;13.80;99.90;;;;;;5070712;28;20051;-83
2021/08/02 05:28:48;;;;;;;12.63;4.63;;;13.90;99.90;;;;;;5082962;28;20062;-82
2021/08/02 05:31:21;;;;;;;10.40;4.72;;;14.00;99.90;;;;;;5060113;28;20049;-84
2021/08/02 05:33:50;;;;;;;9.73;4.68;;;14.00;99.90;;;;;;5084684;28;20028;-83
2021/08/02 05:36:25;;;;;;;12.55;4.38;;;14.10;99.90;;;;;;5052198;28;20044;-83
2021/08/02 05:38:56;;;;;;;11.60;5.38;;;14.10;99.90;;;;;;5067958;28;20045;-82
2021/08/02 05:41:26;;;;;;;7.22;4.10;;;14.20;99.90;;;;;;5054886;28;20792;-83
2021/08/02 05:43:55;;;;;;;11.18;4.68;;;14.20;99.90;;;;;;5078187;28;20045;-82
2021/08/02 05:46:27;;;;;;;10.82;4.35;;;14.30;99.90;;;;;;5084315;28;20052;-82
2021/08/02 05:48:59;;;;;;;9.93;4.10;;;14.40;99.90;;;;;;5085805;28;20045;-82
2021/08/02 05:51:29;;;;;;;9.20;3.80;;;14.50;99.90;;;;;;5070189;28;20076;-83
2021/08/02 05:53:58;;;;;;;11.57;4.47;;;14.50;99.90;;;;;;5048932;28;20040;-82
2021/08/02 05:56:30;;;;;;;7.20;3.55;;;14.60;99.90;;;;;;5084101;28;20037;-84
2021/08/02 05:59:00;;;;;;;8.68;4.05;;;14.70;99.90;;;;;;5069021;28;20048;-83
2021/08/02 06:01:31;;;;;;;;;;;14.80;99.90;;;;;;5065095;28;20048;-83
2021/08/02 06:04:01;;;;;;;9.73;3.47;;;14.90;99.90;;;;;;5080994;28;19925;-83
2021/08/02 06:06:32;;;;;;;7.57;3.28;;;15.10;99.90;;;;;;5070093;28;20037;-83
2021/08/02 06:09:03;;;;;;;10.20;3.22;;;15.10;99.90;;;;;;5068273;28;20056;-83
2021/08/02 06:11:35;;;;;;;9.50;3.28;;;15.20;99.90;;;;;;5068482;28;20045;-84
2021/08/02 06:14:31;;;;;;;9.10;3.10;;;15.30;99.90;;;;;;5068925;28;20041;-83
2021/08/02 06:17:02;;;;;;;7.10;3.30;;;15.30;99.90;;;;;;5075434;28;20041;-83
2021/08/02 06:19:33;;;;;;;10.50;3.70;;;15.50;99.90;;;;;;5066104;28;20052;-84
2021/08/02 06:22:03;;;;;;;8.35;3.50;;;15.40;99.90;;;;;;5067994;28;20049;-84
2021/08/02 06:24:31;;;;;;;15.07;5.20;;;15.50;99.90;;;;;;5064722;28;20642;-84
2021/08/02 06:27:07;;;;;;;13.57;4.00;;;15.50;99.90;;;;;;5066582;28;20075;-82
2021/08/02 06:29:35;;;;;;;9.18;3.35;;;15.50;99.90;;;;;;5063820;28;20049;-83
2021/08/02 06:32:09;;;;;;;14.10;3.33;;;15.60;99.90;;;;;;5069976;28;20037;-84
2021/08/02 06:34:41;;;;;;;10.18;3.28;;;14.60;99.90;;;;;;5082397;28;20044;-83
2021/08/02 06:37:13;;;;;;;9.40;3.08;;;15.60;99.90;;;;;;5080275;28;20044;-83
2021/08/02 06:39:41;;;;;;;7.07;2.90;;;15.70;99.90;;;;;;5063140;28;20051;-82
2021/08/02 06:42:13;;;;;;;8.63;3.88;;;15.70;99.90;;;;;;5060481;28;20052;-80
2021/08/02 06:44:44;;;;;;;7.47;3.55;;;15.70;99.90;;;;;;5069181;28;20051;-82
2021/08/02 06:47:12;;;;;;;8.65;3.38;;;15.80;99.90;;;;;;5065266;28;20051;-81
2021/08/02 06:49:40;;;;;;;11.60;2.83;;;15.80;99.90;;;;;;5066444;28;20043;-82
2021/08/02 06:52:09;;;;;;;7.82;3.03;;;15.80;99.90;;;;;;5062123;28;20067;-82
2021/08/02 06:54:37;;;;;;;8.52;2.30;;;15.80;99.90;;;;;;5063234;28;20048;-81
2021/08/02 06:57:06;;;;;;;9.93;2.50;;;15.80;99.90;;;;;;5031827;28;20045;-82
2021/08/02 06:59:45;;;;;;;6.13;2.67;;;15.90;99.90;;;;;;5065235;28;20049;-81
2021/08/02 07:02:15;;;;;;;7.03;2.22;;;16.00;99.90;;;;;;5060914;28;20041;-81
2021/08/02 07:04:44;;;;;;;8.75;2.22;;;16.00;99.90;;;;;;5062902;28;20045;-82
2021/08/02 07:07:12;;;;;;;11.60;2.95;;;16.00;99.90;;;;;;5046395;28;20045;-81
2021/08/02 07:09:40;;;;;;;4.05;2.10;;;16.00;99.90;;;;;;5067486;28;20051;-82
2021/08/02 07:12:08;;;;;;;8.45;2.63;;;16.10;99.90;;;;;;5053211;28;20196;-89
2021/08/02 07:14:37;;;;;;;8.68;2.63;;;16.10;99.90;;;;;;5071430;28;20354;-83
2021/08/02 07:19:59;;;;;;;15.57;2.67;;;16.20;99.90;;;;;;5064580;28;20051;-86
2021/08/02 07:22:27;;;;;;;7.55;3.80;;;16.30;99.90;;;;;;5068115;28;20055;-89
2021/08/02 07:24:55;;;;;;;8.00;2.10;;;16.30;99.90;;;;;;5056262;28;20048;-87
2021/08/02 07:27:23;;;;;;;7.97;2.75;;;16.70;99.90;;;;;;5082697;28;20043;-85
2021/08/02 07:29:51;;;;;;;8.68;2.83;;;16.40;99.90;;;;;;5053842;28;20036;-84
2021/08/02 07:32:20;;;;;;;10.63;2.63;;;16.40;99.90;;;;;;5073803;28;20052;-85
2021/08/02 07:34:48;;;;;;;8.73;2.90;;;16.50;99.90;;;;;;5077483;28;20053;-84
2021/08/02 07:37:16;;;;;;;8.75;2.65;;;16.50;99.90;;;;;;5075621;28;20506;-87
2021/08/02 07:39:44;;;;;;;4.28;1.88;;;16.60;99.90;;;;;;5079279;28;20056;-86
2021/08/02 07:42:12;;;;;;;6.72;3.00;;;16.60;99.90;;;;;;5073085;28;20055;-88
2021/08/02 07:44:40;;;;;;;11.50;2.35;;;16.70;99.90;;;;;;5079535;28;20037;-88
2021/08/02 07:47:08;;;;;;;7.95;2.40;;;16.70;99.90;;;;;;5078255;28;20051;-84
2021/08/02 07:49:36;;;;;;;4.18;1.92;;;16.90;99.90;;;;;;5073710;28;20043;-88
2021/08/02 07:52:04;;;;;;;9.25;1.83;;;16.90;99.90;;;;;;5073790;28;20047;-89
2021/08/02 07:54:35;;;;;;;10.10;3.47;;;16.90;99.90;;;;;;5081875;28;20037;-89
2021/08/02 07:57:04;;;;;;;9.67;1.77;;;16.90;99.90;;;;;;5086008;28;20040;-85
2021/08/02 07:59:34;;;;;;;9.02;3.53;;;16.30;99.90;;;;;;5063583;28;20196;-88
2021/08/02 08:02:37;;;;;;;3.50;2.10;;;16.70;99.90;;;;;;5056778;28;20048;-89
2021/08/02 08:05:09;;;;;;;4.70;2.10;;;17.10;99.90;;;;;;5093027;28;20063;-85
2021/08/02 08:07:51;;;;;;;5.28;2.17;;;17.10;99.90;;;;;;5077653;28;20037;-88
2021/08/02 08:10:21;;;;;;;7.60;2.03;;;17.20;99.90;;;;;;5074419;28;20127;-90
2021/08/02 08:12:50;;;;;;;4.13;1.88;;;17.20;99.90;;;;;;5076896;28;20052;-88
2021/08/02 08:15:21;;;;;;;4.15;2.35;;;17.30;99.90;;;;;;5079032;28;20036;-84
2021/08/02 08:17:52;;;;;;;10.55;2.38;;;17.90;99.90;;;;;;5085753;28;20040;-87
2021/08/02 08:20:24;;;;;;;10.07;1.98;;;17.50;99.90;;;;;;5089957;28;20047;-85
2021/08/02 08:22:52;;;;;;;7.22;1.92;;;17.50;99.90;;;;;;5056155;28;20056;-84
2021/08/02 08:25:21;;;;;;;6.80;2.10;;;18.20;99.90;;;;;;5061583;28;20374;-85
2021/08/02 08:27:50;;;;;;;7.57;2.00;;;17.70;99.90;;;;;;5099717;28;20052;-86
2021/08/02 08:30:20;;;;;;;7.47;1.83;;;17.70;99.90;;;;;;5080593;28;20048;-83
2021/08/02 08:32:49;;;;;;;10.40;2.17;;;17.80;99.90;;;;;;5094872;28;20072;-84
2021/08/02 08:35:18;;;;;;;3.20;1.25;;;17.90;99.90;;;;;;5092796;28;20052;-88
2021/08/02 08:37:46;;;;;;;7.38;1.65;;;18.00;99.90;;;;;;5077569;28;20033;-82
2021/08/02 08:40:15;;;;;;;5.97;1.77;;;18.10;99.90;;;;;;5074987;28;20045;-90
2021/08/02 08:42:43;;;;;;;3.13;1.30;;;18.20;99.90;;;;;;5093105;28;20042;-90
2021/08/02 08:45:39;;;;;;;7.40;3.28;;;18.30;99.90;;;;;;5078833;28;20028;-92
2021/08/02 08:48:33;;;;;;;4.50;2.17;;;18.40;99.90;;;;;;5085656;28;20051;-86
2021/08/02 08:51:06;;;;;;;5.28;1.80;;;18.40;99.90;;;;;;5101452;28;20044;-87
2021/08/02 08:53:38;;;;;;;5.85;1.65;;;18.50;99.90;;;;;;5096382;28;20055;-91
2021/08/02 08:56:15;;;;;;;6.57;1.92;;;18.50;99.90;;;;;;5074119;28;20055;-92
2021/08/02 08:58:44;;;;;;;11.55;2.00;;;18.50;99.90;;;;;;5078698;28;20047;-89
2021/08/02 09:01:26;;;;;;;7.18;1.85;;;18.70;99.80;;;;;;5082728;28;20040;-86
2021/08/02 09:03:59;;;;;;;8.98;2.97;;;18.70;98.80;;;;;;5098167;28;20058;-91
2021/08/02 09:06:49;;;;;;;2.05;1.35;;;18.70;98.80;;;;;;5094529;28;20025;-92
2021/08/02 09:09:35;;;;;;;4.22;1.52;;;18.80;97.50;;;;;;5091493;28;20052;-89
2021/08/02 09:12:16;;;;;;;6.75;1.27;;;18.90;97.40;;;;;;5068621;28;20033;-89
2021/08/02 09:14:52;;;;;;;4.50;1.42;;;18.90;97.20;;;;;;5090916;28;20041;-87
2021/08/02 09:17:34;;;;;;;4.10;1.85;;;19.00;96.00;;;;;;5072932;28;20052;-85
2021/08/02 09:20:22;;;;;;;3.43;1.30;;;19.00;95.80;;;;;;5071635;28;20024;-86
2021/08/02 09:22:53;;;;;;;4.80;1.70;;;19.10;96.10;;;;;;5077287;28;20044;-87
2021/08/02 09:25:50;;;;;;;3.67;1.27;;;18.50;96.30;;;;;;5095488;28;20036;-85
2021/08/02 09:28:23;;;;;;;2.53;1.42;;;19.30;95.70;;;;;;5076094;28;20040;-88
2021/08/02 09:31:01;;;;;;;5.68;1.80;;;19.40;96.10;;;;;;5052021;28;20048;-87
2021/08/02 09:33:46;;;;;;;4.30;1.70;;;19.50;95.90;;;;;;5061544;28;20059;-91
2021/08/02 09:36:16;;;;;;;9.30;1.55;;;19.60;95.70;;;;;;5070912;28;20044;-94
2021/08/02 09:38:45;;;;;;;5.07;1.40;;;19.70;95.40;;;;;;5082210;28;20051;-91
2021/08/02 09:41:22;;;;;;;2.15;1.20;;;19.60;95.70;;;;;;5086336;28;20040;-86
2021/08/02 09:43:53;;;;;;;4.63;1.35;;;19.70;95.40;;;;;;5081998;28;20045;-89
2021/08/02 09:46:21;;;;;;;1.60;1.23;;;19.70;95.60;;;;;;5101606;28;20045;-91
2021/08/02 09:48:49;;;;;;;5.60;1.95;;;19.70;95.60;;;;;;5083467;28;20045;-86
2021/08/02 09:51:21;;;;;;;2.45;1.30;;;19.80;95.60;;;;;;5092431;28;20036;-92
2021/08/02 09:54:44;;;;;;;6.03;2.30;;;19.80;94.90;;;;;;5063738;28;20338;-89
2021/08/02 09:57:13;;;;;;;7.07;1.98;;;19.90;94.00;;;;;;5089463;28;20049;-86
2021/08/02 09:59:42;;;;;;;8.20;1.75;;;20.00;94.50;;;;;;5080792;28;20054;-90
2021/08/02 10:02:11;;;;;;;7.15;1.67;;;20.00;95.00;;;;;;5081385;28;20041;-91
2021/08/02 10:04:42;;;;;;;5.95;1.67;;;20.10;94.90;;;;;;5077051;28;20060;-91
2021/08/02 10:07:13;;;;;;;12.88;2.88;;;20.10;95.10;;;;;;5088550;28;20052;-91
2021/08/02 10:09:43;;;;;;;5.57;1.65;;;20.20;94.90;;;;;;5062916;28;20036;-90
2021/08/02 10:12:13;;;;;;;6.07;1.33;;;20.20;94.70;;;;;;5053287;28;20068;-90
2021/08/02 10:14:44;;;;;;;6.22;1.92;;;20.40;94.90;;;;;;5057790;28;20051;-86
2021/08/02 10:17:17;;;;;;;7.07;2.63;;;20.40;94.70;;;;;;5056823;28;20049;-91
2021/08/02 10:19:55;;;;;;;6.65;2.28;;;19.70;94.20;;;;;;5055762;28;20336;-88
2021/08/02 10:22:30;;;;;;;8.07;2.28;;;20.50;94.40;;;;;;5070129;28;20031;-91
2021/08/02 10:25:01;;;;;;;4.55;1.50;;;20.60;94.30;;;;;;5040447;28;20045;-91
2021/08/02 10:31:28;;;;;;;4.80;2.38;;;20.70;93.80;;;;;;5053746;28;20045;-89
2021/08/02 10:34:20;;;;;;;4.63;1.83;;;20.70;94.00;;;;;;5072208;28;20052;-87
2021/08/02 10:37:38;;;;;;;5.63;1.67;;;20.80;93.40;;;;;;5074280;28;20029;-85
2021/08/02 10:40:17;;;;;;;5.03;1.73;;;20.90;93.20;;;;;;5066551;28;20053;-89
2021/08/02 10:42:53;;;;;;;8.05;2.85;;;21.00;93.50;;;;;;5069225;28;20049;-88
2021/08/02 10:45:34;;;;;;;5.97;3.20;;;21.20;93.10;;;;;;5073504;28;20044;-87
2021/08/02 10:48:05;;;;;;;11.68;3.22;;;21.50;93.20;;;;;;5054226;28;20059;-90
2021/08/02 10:50:41;;;;;;;6.00;1.52;;;21.60;93.50;;;;;;5065393;28;20053;-91
2021/08/02 10:53:19;;;;;;;9.70;1.85;;;21.60;93.10;;;;;;5071031;28;20045;-86
2021/08/02 10:55:53;;;;;;;4.80;1.23;;;21.60;92.90;;;;;;5086467;28;20048;-88
2021/08/02 10:58:40;;;;;;;8.35;1.55;;;21.60;92.60;;;;;;5077988;28;20054;-86
2021/08/02 11:01:14;;;;;;;5.93;1.85;;;21.60;92.20;;;;;;5059274;28;20052;-88
2021/08/02 11:03:42;;;;;;;4.15;2.30;;;21.60;91.90;;;;;;5087668;28;20041;-90
2021/08/02 11:06:31;;;;;;;5.55;1.55;;;21.60;92.20;;;;;;5053734;28;20044;-88
2021/08/02 11:08:59;;;;;;;2.55;1.30;;;21.60;92.30;;;;;;5075618;28;20051;-85
2021/08/02 11:12:02;;;;;;;5.03;1.98;;;21.70;92.30;;;;;;5075050;28;20061;-84
2021/08/02 11:14:54;;;;;;;7.68;1.77;;;21.80;91.70;;;;;;5067390;28;20053;-90
2021/08/02 11:17:29;;;;;;;3.05;1.20;;;21.80;91.60;;;;;;5075896;28;20059;-89
2021/08/02 11:20:09;;;;;;;3.88;1.55;;;21.90;91.80;;;;;;5076007;28;20041;-83
2021/08/02 11:22:59;;;;;;;5.25;2.20;;;22.00;91.30;;;;;;5078410;28;20037;-89
2021/08/02 11:25:37;;;;;;;3.05;1.35;;;22.10;90.70;;;;;;5076928;28;20053;-86
2021/08/02 11:28:10;;;;;;;3.90;1.35;;;22.20;91.40;;;;;;5083402;28;20045;-91
2021/08/02 11:30:50;;;;;;;4.78;1.98;;;21.30;91.10;;;;;;5071088;28;20045;-86
2021/08/02 11:33:44;;;;;;;5.13;1.40;;;22.30;91.00;;;;;;5071170;28;20024;-89
2021/08/02 11:36:38;;;;;;;3.92;1.55;;;22.40;90.70;;;;;;5075325;28;20056;-83
2021/08/02 11:39:15;;;;;;;4.20;1.50;;;23.20;90.80;;;;;;5094142;28;20055;-86
2021/08/02 11:41:46;;;;;;;2.92;1.33;;;22.20;90.60;;;;;;5087176;28;20037;-87
2021/08/02 11:44:14;;;;;;;5.07;1.63;;;22.10;90.80;;;;;;5088098;28;20033;-82
2021/08/02 11:46:46;;;;;;;3.28;1.20;;;22.10;90.70;;;;;;5051339;28;20037;-81
2021/08/02 11:49:18;;;;;;;3.80;1.20;;;22.00;90.80;;;;;;5068574;28;20063;-92
2021/08/02 11:51:48;;;;;;;3.78;1.42;;;22.00;90.50;;;;;;5069022;28;20060;-85
2021/08/02 11:54:32;;;;;;;7.77;1.80;;;21.90;90.60;;;;;;5068610;28;20045;-87
2021/08/02 11:57:00;;;;;;;2.28;1.20;;;21.90;90.20;;;;;;5052556;28;20059;-89
2021/08/02 11:59:30;;;;;;;4.72;2.38;;;21.90;90.90;;;;;;5046817;28;20044;-87
2021/08/02 12:02:00;;;;;;;4.13;1.45;;;21.80;90.90;;;;;;5077208;28;20619;-83
2021/08/02 12:04:41;;;;;;;4.20;1.80;;;21.70;91.00;;;;;;5069807;28;20053;-82
2021/08/02 12:07:24;;;;;;;3.65;1.38;;;21.50;90.90;;;;;;5083042;28;20095;-83
2021/08/02 12:09:52;;;;;;;7.70;1.60;;;21.30;91.30;;;;;;5068262;28;20037;-84
2021/08/02 12:12:22;;;;;;;4.85;1.60;;;21.30;91.50;;;;;;5038440;28;20045;-84
2021/08/02 12:14:50;;;;;;;4.30;1.38;;;21.20;91.50;;;;;;5070065;28;20046;-83
2021/08/02 12:17:21;;;;;;;11.65;1.60;;;21.10;91.50;;;;;;5058036;28;20048;-84
2021/08/02 12:19:51;;;;;;;10.30;1.95;;;21.00;91.80;;;;;;5068612;28;20033;-84
2021/08/02 12:22:24;;;;;;;6.43;1.45;;;20.90;92.10;;;;;;5071376;28;20050;-85
2021/08/02 12:24:59;;;;;;;4.35;1.40;;;20.70;92.40;;;;;;5054302;28;20143;-84
2021/08/02 12:27:45;;;;;;;4.72;1.70;;;20.50;92.60;;;;;;5055670;28;20059;-84
2021/08/02 12:30:17;;;;;;;3.15;1.73;;;20.40;92.90;;;;;;5069939;28;20055;-83
2021/08/02 12:32:49;;;;;;;6.68;2.50;;;20.30;93.30;;;;;;5071190;28;20041;-82
2021/08/02 12:35:19;;;;;;;12.23;2.10;;;20.20;93.60;;;;;;5066647;28;20037;-82
2021/08/02 12:37:49;;;;;;;5.68;1.90;;;20.10;94.00;;;;;;5059937;28;20057;-84
2021/08/02 12:40:18;;;;;;;6.60;2.50;;;20.00;94.40;;;;;;5069404;28;20041;-87
2021/08/02 12:42:48;;;;;;;6.50;3.10;;;19.90;95.10;;;;;;5070133;28;20053;-83
2021/08/02 12:45:18;;;;;;;9.47;2.80;;;19.80;95.30;;;;;;5072690;28;20043;-84
2021/08/02 12:47:48;;;;;;;4.80;2.20;;;19.60;95.70;;;;;;5075915;28;20301;-84
2021/08/02 12:50:22;;;;;;;3.65;2.45;;;19.50;95.90;;;;;;5063236;28;20043;-86
2021/08/02 12:52:51;;;;;;;6.55;2.25;;;19.40;96.40;;;;;;5066131;28;20051;-84
2021/08/02 12:55:21;;;;;;;6.05;2.05;;;19.30;96.60;;;;;;5045792;28;20052;-83
2021/08/02 12:57:51;;;;;;;6.43;2.05;;;19.20;97.00;;;;;;5068706;28;20064;-83
2021/08/02 13:00:28;;;;;;;6.70;1.83;;;19.10;97.10;;;;;;5048820;28;20048;-84
2021/08/02 13:02:57;;;;;;;4.78;1.70;;;19.00;97.40;;;;;;5059252;28;20037;-84
2021/08/02 13:05:26;;;;;;;7.47;2.35;;;19.00;97.70;;;;;;5058894;28;20062;-83
2021/08/02 13:08:00;;;;;;;4.18;1.73;;;18.90;98.00;;;;;;5058897;28;20051;-83
2021/08/02 13:10:28;;;;;;;3.90;1.83;;;18.80;98.60;;;;;;5061105;28;20051;-83
2021/08/02 13:12:56;;;;;;;4.65;2.40;;;18.80;98.30;;;;;;5039140;28;20056;-84
2021/08/02 13:15:44;;;;;;;6.70;2.20;;;18.70;98.50;;;;;;5043479;28;20049;-84
2021/08/02 13:18:13;;;;;;;6.10;2.35;;;18.80;98.40;;;;;;5043542;28;20089;-84
2021/08/02 13:20:48;;;;;;;5.97;2.15;;;18.80;98.30;;;;;;5042947;28;20049;-84
2021/08/02 13:28:54;;;;;;;4.72;1.90;;;18.90;98.40;;;;;;5021690;28;20081;-84
2021/08/02 13:31:22;;;;;;;5.55;2.95;;;18.90;98.50;;;;;;5055606;28;20053;-84
2021/08/02 13:33:51;;;;;;;3.95;2.00;;;19.00;98.90;;;;;;5062520;28;20254;-84
2021/08/02 13:36:18;;;;;;;3.55;2.10;;;18.80;99.00;;;;;;5059012;28;20045;-84